Time;durP1;ratioP1;P1;durP2;ratioP2;P2;SDS_P1;SDS_P2;PMS_P1;PMS_P2;Temp;Humidity;BMP_temperature;BMP_pressure;BME280_temperature;BME280_humidity;BME280_pressure;Samples;Min_cycle;Max_cycle;Signal;HPM_P1;HPM_P2
2021/03/12 00:01:32;;;;;;;3.17;2.22;;;;;;;;;;5056066;28;20016;-51
2021/03/12 00:04:03;;;;;;;2.97;2.50;;;;;;;;;;5055963;28;20049;-47
2021/03/12 00:06:30;;;;;;;5.18;2.97;;;;;;;;;;5056450;28;20031;-44
2021/03/12 00:08:58;;;;;;;4.45;2.33;;;;;;;;;;5055673;28;20025;-44
2021/03/12 00:11:38;;;;;;;2.97;1.92;;;;;;;;;;5055274;28;20467;-46
2021/03/12 00:14:05;;;;;;;2.73;2.43;;;;;;;;;;5056213;28;20021;-49
2021/03/12 00:16:56;;;;;;;3.08;1.88;;;;;;;;;;5055456;28;20075;-48
2021/03/12 00:19:24;;;;;;;2.50;1.83;;;;;;;;;;5045698;28;20033;-44
2021/03/12 00:21:53;;;;;;;3.97;2.03;;;;;;;;;;5055137;28;20017;-44
2021/03/12 00:24:18;;;;;;;3.95;2.30;;;;;;;;;;5055801;28;20427;-47
2021/03/12 00:26:43;;;;;;;5.95;2.38;;;;;;;;;;5055253;28;20103;-45
2021/03/12 00:29:09;;;;;;;5.45;1.92;;;;;;;;;;5055970;28;20027;-43
2021/03/12 00:34:37;;;;;;;2.33;1.73;;;;;;;;;;5055760;28;20428;-45
2021/03/12 00:37:02;;;;;;;3.55;2.75;;;;;;;;;;5055187;28;20096;-45
2021/03/12 00:39:28;;;;;;;4.45;2.72;;;;;;;;;;5055338;28;20456;-43
2021/03/12 00:41:53;;;;;;;3.65;2.47;;;;;;;;;;5055035;28;20501;-45
2021/03/12 00:44:19;;;;;;;2.45;1.90;;;;;;;;;;5055233;28;20028;-50
2021/03/12 00:46:44;;;;;;;6.15;3.40;;;;;;;;;;5054927;28;20037;-48
2021/03/12 00:49:10;;;;;;;4.10;2.83;;;;;;;;;;5055155;28;20075;-49
2021/03/12 00:51:35;;;;;;;4.03;3.10;;;;;;;;;;5054691;28;20055;-45
2021/03/12 00:54:02;;;;;;;5.25;3.47;;;;;;;;;;5054854;28;20067;-47
2021/03/12 00:56:28;;;;;;;5.75;4.13;;;;;;;;;;5055323;28;20048;-44
2021/03/12 00:58:53;;;;;;;5.47;3.75;;;;;;;;;;5053467;28;20107;-42
2021/03/12 01:01:18;;;;;;;5.60;4.57;;;;;;;;;;5054397;28;20096;-46
2021/03/12 01:03:44;;;;;;;9.93;3.35;;;;;;;;;;5054736;28;20051;-44
2021/03/12 01:06:09;;;;;;;4.55;3.80;;;;;;;;;;5054563;28;20400;-43
2021/03/12 01:08:34;;;;;;;4.15;3.45;;;;;;;;;;5054067;28;20396;-44
2021/03/12 01:11:00;;;;;;;4.22;3.17;;;;;;;;;;5055116;28;20085;-45
2021/03/12 01:13:25;;;;;;;4.32;2.83;;;;;;;;;;5054264;28;20336;-43
2021/03/12 01:15:50;;;;;;;7.30;2.80;;;;;;;;;;5053240;28;20060;-43
2021/03/12 01:18:16;;;;;;;3.00;2.13;;;;;;;;;;5054681;28;20049;-48
2021/03/12 01:20:41;;;;;;;5.88;2.72;;;;;;;;;;5054762;28;20027;-44
2021/03/12 01:23:07;;;;;;;3.25;2.25;;;;;;;;;;5054740;28;20100;-43
2021/03/12 01:25:52;;;;;;;8.15;4.88;;;;;;;;;;5051975;28;20044;-45
2021/03/12 01:28:18;;;;;;;3.40;2.88;;;;;;;;;;5053636;28;20075;-47
2021/03/12 01:30:44;;;;;;;3.72;2.95;;;;;;;;;;5053858;28;20436;-43
2021/03/12 01:33:10;;;;;;;9.10;5.63;;;;;;;;;;5053806;28;20035;-45
2021/03/12 01:35:35;;;;;;;5.55;2.58;;;;;;;;;;5054037;28;20021;-44
2021/03/12 01:38:01;;;;;;;5.22;2.70;;;;;;;;;;5053964;28;20027;-44
2021/03/12 01:40:27;;;;;;;7.20;3.70;;;;;;;;;;5053668;28;20017;-43
2021/03/12 01:42:53;;;;;;;4.35;3.40;;;;;;;;;;5053829;28;20035;-46
2021/03/12 01:45:21;;;;;;;4.63;2.65;;;;;;;;;;5053857;28;20096;-47
2021/03/12 01:47:46;;;;;;;8.48;3.63;;;;;;;;;;5053900;28;20032;-45
2021/03/12 01:50:12;;;;;;;3.53;3.13;;;;;;;;;;5053748;28;20017;-44
2021/03/12 01:52:37;;;;;;;4.72;3.90;;;;;;;;;;5053669;28;20048;-43
2021/03/12 01:55:04;;;;;;;4.00;2.97;;;;;;;;;;5054681;28;20036;-46
2021/03/12 01:57:29;;;;;;;5.68;4.43;;;;;;;;;;5051408;28;20108;-49
2021/03/12 01:59:55;;;;;;;5.30;4.38;;;;;;;;;;5054523;28;20479;-44
2021/03/12 02:02:20;;;;;;;6.10;5.20;;;;;;;;;;5053540;28;20013;-44
2021/03/12 02:04:45;;;;;;;8.77;3.88;;;;;;;;;;5053846;28;20032;-45
2021/03/12 02:07:10;;;;;;;10.73;4.35;;;;;;;;;;5053423;28;20029;-44
2021/03/12 02:09:36;;;;;;;4.90;3.70;;;;;;;;;;5054107;28;20450;-43
2021/03/12 02:12:08;;;;;;;3.60;3.30;;;;;;;;;;5053741;28;20021;-47
2021/03/12 02:14:39;;;;;;;4.40;3.53;;;;;;;;;;5054171;28;20033;-47
2021/03/12 02:17:08;;;;;;;5.30;3.60;;;;;;;;;;5053604;28;20379;-43
2021/03/12 02:19:42;;;;;;;4.97;3.95;;;;;;;;;;5053612;28;20021;-47
2021/03/12 02:22:09;;;;;;;5.88;3.25;;;;;;;;;;5052329;28;20045;-43
2021/03/12 02:24:51;;;;;;;5.20;3.17;;;;;;;;;;5053507;28;20033;-44
2021/03/12 02:27:19;;;;;;;5.68;3.75;;;;;;;;;;5053143;28;20074;-45
2021/03/12 02:29:45;;;;;;;7.03;5.35;;;;;;;;;;5053825;28;20057;-43
2021/03/12 02:32:12;;;;;;;4.20;3.08;;;;;;;;;;5052839;28;20363;-43
2021/03/12 02:34:39;;;;;;;4.53;2.65;;;;;;;;;;5053237;28;20024;-43
2021/03/12 02:37:05;;;;;;;5.38;4.38;;;;;;;;;;5053059;28;20052;-43
2021/03/12 02:39:31;;;;;;;6.70;3.88;;;;;;;;;;5053403;28;20138;-44
2021/03/12 02:41:58;;;;;;;5.97;3.83;;;;;;;;;;5053162;28;20025;-43
2021/03/12 08:47:31;;;;;;;13.32;8.77;;;;;;;;;;5297580;22;20070;-45
2021/03/12 08:49:57;;;;;;;17.15;9.82;;;;;;;;;;4978486;28;20475;-46
2021/03/12 08:52:22;;;;;;;23.85;12.70;;;;;;;;;;4981056;28;20026;-48
2021/03/12 08:54:48;;;;;;;22.23;9.13;;;;;;;;;;4980177;28;20023;-53
2021/03/12 08:57:20;;;;;;;11.88;10.73;;;;;;;;;;4975904;28;20039;-49
2021/03/12 09:00:01;;;;;;;19.33;9.48;;;;;;;;;;4982613;28;20109;-45
2021/03/12 09:02:26;;;;;;;18.70;16.73;;;;;;;;;;4980127;28;20074;-49
2021/03/12 09:04:51;;;;;;;31.60;18.75;;;;;;;;;;4982580;28;20065;-50
2021/03/12 09:07:16;;;;;;;21.17;10.30;;;;;;;;;;4988984;28;20042;-49
2021/03/12 09:09:42;;;;;;;11.45;8.80;;;;;;;;;;4991062;28;20026;-48
2021/03/12 09:12:07;;;;;;;19.52;11.38;;;;;;;;;;4992174;28;20487;-44
2021/03/12 09:14:39;;;;;;;14.60;10.35;;;;;;;;;;4992435;28;20388;-49
2021/03/12 09:17:05;;;;;;;17.02;15.02;;;;;;;;;;4992367;28;20033;-47
2021/03/12 09:19:30;;;;;;;22.38;16.60;;;;;;;;;;4991263;28;20026;-48
2021/03/12 09:21:56;;;;;;;26.05;18.17;;;;;;;;;;4974467;28;20027;-46
2021/03/12 09:24:22;;;;;;;20.63;18.10;;;;;;;;;;4984098;28;20069;-47
2021/03/12 09:26:47;;;;;;;22.65;15.20;;;;;;;;;;4975053;28;20843;-49
2021/03/12 09:29:12;;;;;;;28.23;14.10;;;;;;;;;;4971735;28;20062;-49
2021/03/12 09:31:39;;;;;;;24.52;13.65;;;;;;;;;;4988491;28;20034;-46
2021/03/12 09:34:06;;;;;;;17.30;12.13;;;;;;;;;;4982825;28;20362;-45
2021/03/12 09:36:31;;;;;;;21.42;12.85;;;;;;;;;;4979804;28;20486;-49
2021/03/12 09:39:04;;;;;;;16.80;11.20;;;;;;;;;;4982196;28;20030;-47
2021/03/12 09:41:29;;;;;;;19.02;11.73;;;;;;;;;;4982673;28;20084;-47
2021/03/12 09:43:57;;;;;;;19.92;13.35;;;;;;;;;;4979582;28;20795;-43
2021/03/12 09:46:33;;;;;;;12.90;9.23;;;;;;;;;;4987475;28;20124;-46
2021/03/12 09:48:59;;;;;;;14.45;11.05;;;;;;;;;;4971041;28;20037;-46
2021/03/12 09:51:24;;;;;;;25.50;11.45;;;;;;;;;;4981828;28;20583;-44
2021/03/12 09:53:50;;;;;;;12.95;11.15;;;;;;;;;;4985059;28;20062;-43
2021/03/12 09:56:18;;;;;;;15.25;10.90;;;;;;;;;;4984421;28;20034;-53
2021/03/12 09:58:44;;;;;;;12.95;10.45;;;;;;;;;;4987056;28;20096;-47
2021/03/12 10:01:10;;;;;;;12.93;11.57;;;;;;;;;;4981432;28;20034;-48
2021/03/12 10:03:35;;;;;;;14.30;9.65;;;;;;;;;;4982832;28;20035;-48
2021/03/12 10:06:07;;;;;;;11.23;10.02;;;;;;;;;;4983103;28;20032;-51
2021/03/12 10:08:32;;;;;;;16.83;12.25;;;;;;;;;;4983497;28;20365;-50
2021/03/12 10:10:58;;;;;;;12.48;9.27;;;;;;;;;;4986388;28;20019;-45
2021/03/12 10:13:26;;;;;;;10.38;8.05;;;;;;;;;;4986691;28;20081;-50
2021/03/12 10:15:52;;;;;;;14.13;9.65;;;;;;;;;;4986757;28;20116;-46
2021/03/12 10:18:19;;;;;;;24.95;11.95;;;;;;;;;;4986259;28;20105;-50
2021/03/12 10:20:45;;;;;;;20.67;10.73;;;;;;;;;;4988024;28;20097;-50
2021/03/12 10:23:10;;;;;;;11.52;8.23;;;;;;;;;;4982404;28;20027;-46
2021/03/12 10:25:37;;;;;;;11.18;8.15;;;;;;;;;;4988098;28;20117;-46
2021/03/12 10:28:31;;;;;;;12.50;7.53;;;;;;;;;;4988002;28;20053;-49
2021/03/12 10:30:57;;;;;;;16.13;11.52;;;;;;;;;;4970834;28;20038;-48
2021/03/12 10:33:24;;;;;;;17.80;12.35;;;;;;;;;;4987781;28;20034;-49
2021/03/12 10:35:53;;;;;;;15.85;10.43;;;;;;;;;;4987579;28;20038;-52
2021/03/12 10:38:22;;;;;;;17.05;7.00;;;;;;;;;;4985488;28;20400;-53
2021/03/12 10:40:48;;;;;;;24.38;10.68;;;;;;;;;;4987912;28;20384;-54
2021/03/12 10:43:13;;;;;;;12.65;9.50;;;;;;;;;;4986994;28;20049;-45
2021/03/12 10:45:42;;;;;;;18.48;8.43;;;;;;;;;;4987762;28;20101;-48
2021/03/12 10:48:08;;;;;;;27.67;9.52;;;;;;;;;;4980016;28;20050;-47
2021/03/12 10:50:34;;;;;;;7.75;6.75;;;;;;;;;;4988034;28;20370;-48
2021/03/12 10:53:03;;;;;;;13.65;6.25;;;;;;;;;;4988389;28;20030;-49
2021/03/12 10:55:32;;;;;;;29.17;8.50;;;;;;;;;;4987805;28;20034;-47
2021/03/12 10:58:00;;;;;;;9.05;6.50;;;;;;;;;;4987973;28;20140;-45
2021/03/12 11:00:25;;;;;;;14.30;6.63;;;;;;;;;;4986279;28;20493;-47
2021/03/12 11:02:55;;;;;;;7.03;5.25;;;;;;;;;;4988050;28;20081;-47
2021/03/12 11:05:21;;;;;;;22.73;8.18;;;;;;;;;;4987869;28;20058;-45
2021/03/12 11:07:46;;;;;;;13.63;7.75;;;;;;;;;;4979815;28;20129;-49
2021/03/12 11:10:12;;;;;;;9.50;5.90;;;;;;;;;;4987175;28;20037;-48
2021/03/12 11:12:48;;;;;;;7.63;4.15;;;;;;;;;;4987687;28;20066;-51
2021/03/12 11:15:14;;;;;;;20.40;4.38;;;;;;;;;;4987717;28;20034;-48
2021/03/12 11:17:44;;;;;;;14.02;5.25;;;;;;;;;;4987163;28;20038;-50
2021/03/12 11:20:10;;;;;;;7.45;5.22;;;;;;;;;;4980138;28;20035;-52
2021/03/12 11:22:35;;;;;;;17.45;4.20;;;;;;;;;;4987541;28;20472;-49
2021/03/12 11:25:02;;;;;;;6.82;3.58;;;;;;;;;;4987571;28;20037;-52
2021/03/12 11:27:27;;;;;;;11.25;4.10;;;;;;;;;;4981400;28;20105;-48
2021/03/12 11:29:54;;;;;;;12.15;3.90;;;;;;;;;;4987834;28;20030;-49
2021/03/12 11:32:19;;;;;;;7.88;3.22;;;;;;;;;;4987481;28;20117;-50
2021/03/12 11:34:44;;;;;;;8.48;4.40;;;;;;;;;;4987611;28;20153;-49
2021/03/12 11:39:45;;;;;;;9.40;4.13;;;;;;;;;;5092610;22;20062;-51
2021/03/12 11:42:10;;;;;;;16.73;4.88;;;;;;;;;;5001718;28;20535;-48
2021/03/12 11:44:35;;;;;;;10.82;4.57;;;;;;;;;;5006730;28;20033;-45
2021/03/12 11:47:02;;;;;;;6.32;3.28;;;;;;;;;;4993349;28;20038;-58
2021/03/12 11:49:27;;;;;;;6.32;2.03;;;;;;;;;;4986717;28;20038;-54
2021/03/12 11:51:53;;;;;;;13.30;6.32;;;;;;;;;;4997420;28;20038;-58
2021/03/12 11:54:19;;;;;;;15.38;6.28;;;;;;;;;;4981896;28;20030;-54
2021/03/12 11:56:44;;;;;;;7.30;4.28;;;;;;;;;;5000930;28;20112;-56
2021/03/12 11:59:11;;;;;;;7.10;4.70;;;;;;;;;;5005226;28;20048;-55
2021/03/12 12:01:36;;;;;;;10.32;5.32;;;;;;;;;;5006425;28;20025;-49
2021/03/12 12:04:02;;;;;;;18.27;6.80;;;;;;;;;;5009621;28;20431;-52
2021/03/12 12:06:27;;;;;;;14.73;7.50;;;;;;;;;;5010403;28;20030;-52
2021/03/12 12:08:53;;;;;;;24.67;6.05;;;;;;;;;;5009821;28;20443;-50
2021/03/12 12:11:19;;;;;;;10.95;5.85;;;;;;;;;;5009442;28;20057;-52
2021/03/12 12:13:44;;;;;;;8.18;5.53;;;;;;;;;;5009459;28;20068;-51
2021/03/12 12:16:09;;;;;;;20.73;8.57;;;;;;;;;;5003905;28;20041;-50
2021/03/12 12:18:34;;;;;;;17.42;8.38;;;;;;;;;;5008931;28;20468;-50
2021/03/12 12:21:00;;;;;;;13.95;9.95;;;;;;;;;;5010358;28;20069;-49
2021/03/12 12:23:25;;;;;;;16.95;6.38;;;;;;;;;;5009509;28;20776;-51
2021/03/12 12:25:50;;;;;;;15.38;5.53;;;;;;;;;;5007703;28;20034;-48
2021/03/12 12:28:16;;;;;;;13.77;5.32;;;;;;;;;;5008532;28;20054;-54
2021/03/12 12:30:41;;;;;;;8.93;5.40;;;;;;;;;;5007916;28;20773;-49
2021/03/12 12:33:07;;;;;;;10.48;4.47;;;;;;;;;;5001915;28;20072;-57
2021/03/12 12:35:32;;;;;;;29.05;15.07;;;;;;;;;;4998192;28;20455;-54
2021/03/12 12:37:57;;;;;;;13.65;9.50;;;;;;;;;;5007146;28;20538;-51
2021/03/12 12:40:24;;;;;;;10.55;5.85;;;;;;;;;;5006031;28;20037;-54
2021/03/12 12:42:49;;;;;;;30.35;10.40;;;;;;;;;;5005465;28;20492;-52
2021/03/12 12:45:15;;;;;;;12.32;6.63;;;;;;;;;;5002625;28;20026;-49
2021/03/12 12:47:42;;;;;;;14.45;4.90;;;;;;;;;;5007711;28;20042;-51
2021/03/12 12:50:07;;;;;;;10.90;6.63;;;;;;;;;;5007836;28;20088;-50
2021/03/12 12:52:33;;;;;;;14.20;5.88;;;;;;;;;;5007447;28;20674;-49
2021/03/12 12:54:59;;;;;;;10.85;7.57;;;;;;;;;;5004236;28;20040;-52
2021/03/12 12:57:24;;;;;;;10.77;5.88;;;;;;;;;;5005859;28;20030;-51
2021/03/12 12:59:50;;;;;;;10.93;7.22;;;;;;;;;;5008628;28;20476;-48
2021/03/12 13:02:15;;;;;;;22.63;9.02;;;;;;;;;;5008687;28;20030;-55
2021/03/12 13:17:41;;;;;;;6.75;4.07;;;;;;;;;;5314163;23;20649;-57
2021/03/12 13:20:09;;;;;;;8.65;4.03;;;;;;;;;;4992247;28;20042;-59
2021/03/12 13:22:35;;;;;;;13.55;6.30;;;;;;;;;;4983651;28;20821;-54
2021/03/12 13:25:00;;;;;;;23.10;7.78;;;;;;;;;;4999911;28;20030;-54
2021/03/12 13:27:25;;;;;;;21.98;5.07;;;;;;;;;;5007759;28;20053;-56
2021/03/12 13:29:51;;;;;;;9.73;4.60;;;;;;;;;;5006651;28;20029;-50
2021/03/12 13:32:16;;;;;;;7.32;5.75;;;;;;;;;;5006941;28;20033;-56
2021/03/12 13:34:41;;;;;;;4.82;2.35;;;;;;;;;;5006331;28;20487;-55
2021/03/12 13:37:07;;;;;;;8.52;4.80;;;;;;;;;;4997410;28;20504;-53
2021/03/12 13:39:32;;;;;;;8.07;3.63;;;;;;;;;;5008323;28;20100;-57
2021/03/12 13:42:00;;;;;;;10.43;4.03;;;;;;;;;;5007642;28;20037;-57
2021/03/12 13:44:26;;;;;;;9.40;4.35;;;;;;;;;;4990430;28;20045;-56
2021/03/12 13:46:51;;;;;;;14.23;6.25;;;;;;;;;;5008150;28;20034;-53
2021/03/12 13:49:16;;;;;;;9.23;4.25;;;;;;;;;;5004539;28;20043;-56
2021/03/12 13:51:42;;;;;;;13.90;5.43;;;;;;;;;;5008048;28;20088;-53
2021/03/12 13:54:07;;;;;;;17.08;5.45;;;;;;;;;;5007998;28;20099;-55
2021/03/12 13:56:32;;;;;;;6.90;3.83;;;;;;;;;;5005032;28;20053;-58
2021/03/12 13:58:58;;;;;;;11.98;5.10;;;;;;;;;;5007453;28;20756;-57
2021/03/12 14:01:23;;;;;;;11.32;6.30;;;;;;;;;;5007757;28;20432;-59
2021/03/12 14:03:48;;;;;;;11.73;4.63;;;;;;;;;;5004668;28;20500;-57
2021/03/12 14:06:14;;;;;;;11.82;6.55;;;;;;;;;;5001281;28;20034;-55
2021/03/12 14:08:39;;;;;;;15.30;4.68;;;;;;;;;;5005279;28;20045;-56
2021/03/12 14:11:04;;;;;;;8.27;6.13;;;;;;;;;;5005835;28;20117;-57
2021/03/12 14:13:30;;;;;;;21.02;5.70;;;;;;;;;;5005003;28;20100;-59
2021/03/12 14:15:55;;;;;;;18.33;5.43;;;;;;;;;;5004520;28;20030;-58
2021/03/12 14:18:21;;;;;;;13.55;5.38;;;;;;;;;;4987532;28;20069;-60
2021/03/12 14:20:46;;;;;;;18.67;5.28;;;;;;;;;;4997900;28;20349;-58
2021/03/12 14:23:11;;;;;;;11.73;5.90;;;;;;;;;;4980179;28;20026;-52
2021/03/12 14:25:37;;;;;;;13.45;5.60;;;;;;;;;;4998470;28;20106;-59
2021/03/12 14:28:02;;;;;;;6.68;4.53;;;;;;;;;;4999779;28;20037;-56
2021/03/12 14:30:28;;;;;;;17.77;4.38;;;;;;;;;;5000874;28;20053;-55
2021/03/12 14:32:53;;;;;;;11.07;4.30;;;;;;;;;;5000122;28;20128;-51
2021/03/12 14:35:19;;;;;;;9.60;5.05;;;;;;;;;;4997969;28;20464;-51
2021/03/12 14:37:44;;;;;;;11.60;6.20;;;;;;;;;;4998262;28;20039;-49
2021/03/12 14:40:12;;;;;;;7.97;4.35;;;;;;;;;;5002407;28;20029;-50
2021/03/12 14:42:37;;;;;;;16.83;5.85;;;;;;;;;;4996980;28;20105;-56
2021/03/12 14:45:03;;;;;;;8.10;4.28;;;;;;;;;;5007739;28;20156;-56
2021/03/12 14:47:29;;;;;;;5.05;3.95;;;;;;;;;;4999857;28;20052;-55
2021/03/12 14:49:54;;;;;;;6.93;2.03;;;;;;;;;;4999288;28;20034;-56
2021/03/12 14:52:19;;;;;;;13.07;4.13;;;;;;;;;;5005091;28;20758;-52
2021/03/12 14:54:45;;;;;;;11.70;5.95;;;;;;;;;;5000742;28;20776;-53
2021/03/12 14:57:10;;;;;;;5.05;3.25;;;;;;;;;;5001532;28;20041;-63
2021/03/12 14:59:35;;;;;;;11.13;3.28;;;;;;;;;;5006139;28;20034;-56
2021/03/12 15:02:01;;;;;;;6.78;3.97;;;;;;;;;;5007270;28;20037;-54
2021/03/12 15:04:26;;;;;;;13.32;5.13;;;;;;;;;;5002066;28;20360;-53
2021/03/12 15:06:51;;;;;;;13.00;3.90;;;;;;;;;;5000337;28;20052;-45
2021/03/12 15:09:16;;;;;;;5.97;2.80;;;;;;;;;;5001253;28;20394;-56
2021/03/12 15:11:42;;;;;;;4.32;2.95;;;;;;;;;;4997928;28;20180;-53
2021/03/12 15:14:07;;;;;;;13.38;3.85;;;;;;;;;;4981576;28;20026;-54
2021/03/12 15:16:32;;;;;;;11.65;4.03;;;;;;;;;;5005369;28;20152;-59
2021/03/12 15:18:58;;;;;;;7.95;3.05;;;;;;;;;;5001546;28;20080;-54
2021/03/12 15:21:23;;;;;;;8.15;4.10;;;;;;;;;;5000758;28;20040;-54
2021/03/12 15:23:48;;;;;;;6.07;3.28;;;;;;;;;;5006787;28;20383;-59
2021/03/12 15:26:14;;;;;;;11.25;2.75;;;;;;;;;;5006667;28;20134;-52
2021/03/12 15:28:39;;;;;;;8.00;3.58;;;;;;;;;;5005252;28;20144;-55
2021/03/12 15:31:04;;;;;;;5.20;2.60;;;;;;;;;;5004934;28;20022;-59
2021/03/12 15:33:30;;;;;;;5.90;2.70;;;;;;;;;;5003493;28;20030;-57
2021/03/12 15:35:55;;;;;;;5.72;2.25;;;;;;;;;;5005513;28;20068;-54
2021/03/12 15:38:20;;;;;;;4.90;3.58;;;;;;;;;;5005498;28;20032;-54
2021/03/12 15:40:46;;;;;;;7.25;2.63;;;;;;;;;;5005488;28;20080;-58
2021/03/12 15:43:11;;;;;;;8.90;2.90;;;;;;;;;;5010112;28;20168;-50
2021/03/12 15:45:37;;;;;;;11.40;3.22;;;;;;;;;;5010097;28;20030;-51
2021/03/12 15:48:02;;;;;;;6.75;3.33;;;;;;;;;;5008538;28;20068;-61
2021/03/12 15:50:27;;;;;;;12.80;3.08;;;;;;;;;;5010886;28;20789;-51
2021/03/12 15:52:53;;;;;;;10.45;1.60;;;;;;;;;;5005435;28;20045;-53
2021/03/12 15:55:23;;;;;;;14.43;3.00;;;;;;;;;;5008686;28;20064;-61
2021/03/12 15:57:48;;;;;;;9.10;5.40;;;;;;;;;;5009072;28;20495;-60
2021/03/12 16:00:13;;;;;;;13.55;6.13;;;;;;;;;;5008983;28;20064;-56
2021/03/12 16:02:42;;;;;;;9.70;4.80;;;;;;;;;;5008910;28;20045;-56
2021/03/12 16:05:08;;;;;;;9.60;3.47;;;;;;;;;;5004331;28;20479;-56
2021/03/12 16:07:33;;;;;;;3.97;1.83;;;;;;;;;;5008875;28;20424;-58
2021/03/12 16:09:59;;;;;;;21.92;14.27;;;;;;;;;;5010256;28;20037;-59
2021/03/12 16:12:24;;;;;;;17.80;11.20;;;;;;;;;;5011056;28;20354;-56
2021/03/12 16:14:50;;;;;;;9.30;3.67;;;;;;;;;;5010673;28;20026;-55
2021/03/12 16:17:15;;;;;;;2.45;2.25;;;;;;;;;;5009425;28;20062;-59
2021/03/12 16:19:40;;;;;;;5.13;2.70;;;;;;;;;;5010130;28;20033;-55
2021/03/12 18:18:05;;;;;;;14.38;8.73;;;;;;;;;;4460764;23;20871;-56
2021/03/12 18:20:31;;;;;;;14.18;8.35;;;;;;;;;;4956962;28;20038;-56
2021/03/12 18:22:56;;;;;;;34.22;23.08;;;;;;;;;;4975218;28;20093;-56
2021/03/12 18:25:22;;;;;;;71.72;58.70;;;;;;;;;;4977379;28;20468;-54
2021/03/12 18:27:47;;;;;;;17.92;10.18;;;;;;;;;;4962781;28;20242;-54
2021/03/12 18:30:13;;;;;;;13.85;7.43;;;;;;;;;;4965739;28;20089;-55
2021/03/12 18:32:39;;;;;;;9.63;4.63;;;;;;;;;;4987921;28;20124;-55
2021/03/12 18:35:06;;;;;;;7.90;3.92;;;;;;;;;;4977081;28;20058;-56
2021/03/12 18:37:31;;;;;;;13.63;7.45;;;;;;;;;;4981304;28;20046;-56
2021/03/12 18:39:57;;;;;;;11.82;5.75;;;;;;;;;;4975259;28;20051;-56
2021/03/12 18:42:22;;;;;;;9.73;6.22;;;;;;;;;;4950641;28;20031;-57
2021/03/12 18:44:48;;;;;;;15.15;7.22;;;;;;;;;;4970314;28;20027;-56
2021/03/12 18:47:13;;;;;;;16.67;8.50;;;;;;;;;;4970107;28;20106;-56
2021/03/12 18:49:38;;;;;;;16.20;6.20;;;;;;;;;;4945954;28;20035;-54
2021/03/12 18:52:04;;;;;;;11.00;4.72;;;;;;;;;;4965743;28;20041;-56
2021/03/12 18:54:30;;;;;;;7.55;3.75;;;;;;;;;;4974176;28;20022;-57
2021/03/12 18:56:55;;;;;;;8.75;4.95;;;;;;;;;;4971933;28;20038;-57
2021/03/12 18:59:20;;;;;;;12.68;4.47;;;;;;;;;;4974163;28;20847;-56
2021/03/12 19:01:46;;;;;;;6.95;4.25;;;;;;;;;;4972641;28;20113;-56
2021/03/12 19:04:11;;;;;;;10.80;5.65;;;;;;;;;;4972379;28;20034;-56
2021/03/12 19:06:36;;;;;;;21.05;6.18;;;;;;;;;;4978861;28;20035;-57
2021/03/12 19:09:02;;;;;;;5.60;3.28;;;;;;;;;;4975736;28;20032;-55
2021/03/12 19:11:27;;;;;;;11.13;3.88;;;;;;;;;;4970399;28;20041;-56
2021/03/12 19:13:53;;;;;;;14.65;5.22;;;;;;;;;;4974276;28;20023;-56
2021/03/12 19:16:18;;;;;;;10.00;3.83;;;;;;;;;;4973495;28;20039;-55
2021/03/12 19:18:43;;;;;;;13.55;4.70;;;;;;;;;;4970910;28;20027;-56
2021/03/12 19:21:09;;;;;;;16.88;7.80;;;;;;;;;;4976043;28;20034;-57
2021/03/12 19:23:34;;;;;;;13.18;8.25;;;;;;;;;;4975201;28;20023;-55
2021/03/12 19:25:59;;;;;;;18.63;8.02;;;;;;;;;;4956408;28;20022;-57
2021/03/12 19:28:25;;;;;;;10.07;6.97;;;;;;;;;;4981229;28;20049;-58
2021/03/12 19:30:50;;;;;;;8.63;5.38;;;;;;;;;;4987665;28;20406;-56
2021/03/12 19:33:15;;;;;;;20.70;12.35;;;;;;;;;;4984753;28;20116;-57
2021/03/12 19:35:41;;;;;;;22.17;12.55;;;;;;;;;;4987759;28;20080;-57
2021/03/12 19:38:06;;;;;;;10.40;6.53;;;;;;;;;;4991016;28;20379;-55
2021/03/12 19:40:31;;;;;;;16.75;7.45;;;;;;;;;;4990235;28;20026;-56
2021/03/12 19:42:57;;;;;;;18.40;6.05;;;;;;;;;;4982310;28;20058;-56
2021/03/12 19:45:24;;;;;;;13.63;7.35;;;;;;;;;;4978539;28;20037;-53
2021/03/12 19:47:51;;;;;;;16.38;6.68;;;;;;;;;;4978659;28;20048;-55
2021/03/12 19:50:17;;;;;;;10.38;7.05;;;;;;;;;;4981619;28;20388;-54
2021/03/12 19:52:43;;;;;;;23.85;16.90;;;;;;;;;;4983589;28;20026;-56
2021/03/12 19:55:08;;;;;;;20.52;14.52;;;;;;;;;;4984870;28;20109;-55
2021/03/12 19:57:34;;;;;;;14.32;9.98;;;;;;;;;;4984730;28;20049;-52
2021/03/12 20:00:00;;;;;;;21.95;12.55;;;;;;;;;;4986079;28;20057;-53
2021/03/12 20:02:25;;;;;;;21.77;15.02;;;;;;;;;;4982129;28;20038;-47
2021/03/12 20:04:50;;;;;;;23.58;16.65;;;;;;;;;;4982539;28;20034;-48
2021/03/12 20:07:16;;;;;;;20.30;13.55;;;;;;;;;;4965627;28;20035;-52
2021/03/12 20:09:41;;;;;;;11.80;10.55;;;;;;;;;;4979165;28;20088;-49
2021/03/12 20:12:07;;;;;;;17.60;11.43;;;;;;;;;;4983732;28;20089;-55
2021/03/12 20:14:32;;;;;;;21.30;14.90;;;;;;;;;;4977356;28;20029;-56
2021/03/12 20:16:58;;;;;;;14.90;10.73;;;;;;;;;;4980873;28;20061;-51
2021/03/12 20:19:23;;;;;;;17.88;9.55;;;;;;;;;;4961538;28;20034;-55
2021/03/12 20:21:48;;;;;;;13.13;10.48;;;;;;;;;;4983774;28;20030;-52
2021/03/12 20:24:16;;;;;;;21.67;7.65;;;;;;;;;;4986617;28;20038;-55
2021/03/12 20:26:42;;;;;;;10.55;6.05;;;;;;;;;;4979595;28;20038;-53
2021/03/12 20:29:08;;;;;;;7.68;5.45;;;;;;;;;;4986518;28;20471;-55
2021/03/12 20:31:35;;;;;;;17.90;8.32;;;;;;;;;;4974687;28;20141;-53
2021/03/12 20:34:00;;;;;;;25.52;10.65;;;;;;;;;;4977592;28;20027;-53
2021/03/12 20:36:26;;;;;;;12.88;9.85;;;;;;;;;;4970935;28;20113;-47
2021/03/12 20:38:51;;;;;;;17.27;13.40;;;;;;;;;;4967480;28;20042;-49
2021/03/12 20:41:16;;;;;;;22.08;11.57;;;;;;;;;;4977891;28;20823;-51
2021/03/12 20:43:42;;;;;;;21.55;12.40;;;;;;;;;;4981524;28;20471;-50
2021/03/12 20:46:07;;;;;;;14.07;9.80;;;;;;;;;;4980207;28;20034;-50
2021/03/12 20:48:32;;;;;;;12.73;9.60;;;;;;;;;;4985310;28;20923;-49
2021/03/12 20:50:58;;;;;;;21.60;13.38;;;;;;;;;;4977319;28;20030;-49
2021/03/12 20:53:23;;;;;;;40.25;36.00;;;;;;;;;;4971279;28;20030;-53
2021/03/12 20:55:50;;;;;;;30.77;27.58;;;;;;;;;;4980065;28;20073;-53
2021/03/12 20:58:15;;;;;;;12.70;11.50;;;;;;;;;;4974321;28;20038;-53
2021/03/12 21:00:41;;;;;;;21.95;12.88;;;;;;;;;;4975964;28;20696;-53
2021/03/12 21:03:08;;;;;;;14.55;10.40;;;;;;;;;;4976491;28;20121;-50
2021/03/12 21:05:35;;;;;;;12.88;10.05;;;;;;;;;;4968085;28;20066;-52
2021/03/12 21:08:00;;;;;;;13.65;9.52;;;;;;;;;;4979431;28;20037;-51
2021/03/12 21:10:26;;;;;;;15.52;8.85;;;;;;;;;;4981323;28;20035;-52
2021/03/12 21:12:51;;;;;;;14.13;7.30;;;;;;;;;;4977384;28;20117;-51
2021/03/12 21:15:16;;;;;;;14.10;6.82;;;;;;;;;;4968807;28;20030;-50
2021/03/12 21:17:42;;;;;;;20.23;6.85;;;;;;;;;;4973087;28;20062;-51
2021/03/12 21:20:08;;;;;;;10.70;8.13;;;;;;;;;;4976434;28;20317;-53
2021/03/12 21:22:33;;;;;;;11.30;7.35;;;;;;;;;;4975742;28;20773;-53
2021/03/12 21:24:59;;;;;;;15.63;8.65;;;;;;;;;;4980489;28;20126;-51
2021/03/12 21:27:24;;;;;;;13.75;5.43;;;;;;;;;;4968248;28;20205;-52
2021/03/12 21:29:49;;;;;;;13.25;7.20;;;;;;;;;;4977833;28;20118;-50
2021/03/12 21:32:15;;;;;;;12.63;4.20;;;;;;;;;;4978280;28;20037;-52
2021/03/12 21:34:40;;;;;;;8.27;4.32;;;;;;;;;;4973492;28;20034;-52
2021/03/12 21:37:05;;;;;;;6.63;4.15;;;;;;;;;;4975511;28;20603;-51
2021/03/12 21:39:31;;;;;;;10.68;4.80;;;;;;;;;;4982124;28;20034;-53
2021/03/12 21:41:56;;;;;;;13.18;6.10;;;;;;;;;;4971132;28;20052;-52
2021/03/12 21:44:21;;;;;;;9.88;5.57;;;;;;;;;;4981270;28;20018;-49
2021/03/12 21:46:47;;;;;;;6.88;4.22;;;;;;;;;;4973990;28;20105;-50
2021/03/12 21:49:12;;;;;;;10.55;6.10;;;;;;;;;;4974581;28;20045;-51
2021/03/12 21:51:39;;;;;;;12.90;3.42;;;;;;;;;;4980490;28;20031;-49
2021/03/12 21:54:05;;;;;;;7.82;4.30;;;;;;;;;;4974864;28;20031;-53
2021/03/12 21:56:30;;;;;;;16.58;4.65;;;;;;;;;;4976574;28;20048;-51
2021/03/12 21:58:55;;;;;;;9.15;4.32;;;;;;;;;;4972531;28;20696;-50
2021/03/12 22:01:20;;;;;;;14.68;11.20;;;;;;;;;;4977414;28;20038;-52
2021/03/12 22:03:46;;;;;;;4.65;3.72;;;;;;;;;;4979419;28;20043;-53
2021/03/12 22:06:11;;;;;;;16.38;5.43;;;;;;;;;;4981601;28;20066;-53
2021/03/12 22:08:36;;;;;;;23.10;4.95;;;;;;;;;;4972778;28;20030;-52
2021/03/12 22:11:02;;;;;;;16.55;4.90;;;;;;;;;;4968819;28;20035;-54
2021/03/12 22:13:27;;;;;;;10.15;2.97;;;;;;;;;;4970349;28;20502;-53
2021/03/12 22:15:53;;;;;;;13.15;6.35;;;;;;;;;;4974608;28;20029;-53
2021/03/12 22:18:18;;;;;;;9.98;3.90;;;;;;;;;;4971709;28;20679;-54
2021/03/12 22:20:44;;;;;;;9.65;4.22;;;;;;;;;;4974525;28;20125;-52
2021/03/12 22:23:09;;;;;;;4.97;2.63;;;;;;;;;;4973183;28;20089;-54
2021/03/12 22:25:34;;;;;;;11.05;3.63;;;;;;;;;;4973469;28;20337;-52
2021/03/12 22:28:03;;;;;;;7.28;4.80;;;;;;;;;;4975295;28;20038;-53
2021/03/12 22:30:29;;;;;;;15.02;5.78;;;;;;;;;;4970620;28;20078;-53
2021/03/12 22:32:54;;;;;;;23.08;5.15;;;;;;;;;;4953793;28;20488;-51
2021/03/12 22:35:21;;;;;;;10.85;7.13;;;;;;;;;;4973269;28;20133;-50
2021/03/12 22:37:47;;;;;;;8.52;6.72;;;;;;;;;;4972972;28;20038;-53
2021/03/12 22:40:14;;;;;;;9.48;3.22;;;;;;;;;;4979531;28;20638;-53
2021/03/12 22:42:39;;;;;;;7.68;4.35;;;;;;;;;;4984439;28;20042;-50
2021/03/12 22:45:05;;;;;;;6.28;3.15;;;;;;;;;;4975607;28;20465;-51